createdAt,value
2018-08-17T00:00:35.287Z,20.66
2018-08-17T00:01:35.306Z,20.51
2018-08-17T00:02:35.327Z,20.63
2018-08-17T00:03:35.350Z,20.63
2018-08-17T00:04:35.374Z,20.69
2018-08-17T00:05:35.390Z,20.60
2018-08-17T00:06:35.415Z,20.63
2018-08-17T00:07:35.433Z,20.41
2018-08-17T00:08:35.458Z,20.52
2018-08-17T00:09:35.475Z,20.41
2018-08-17T00:10:35.496Z,20.50
2018-08-17T00:11:35.517Z,20.34
2018-08-17T00:12:35.542Z,20.44
2018-08-17T00:13:35.557Z,20.51
2018-08-17T00:14:35.577Z,20.56
2018-08-17T00:15:35.601Z,20.72
2018-08-17T00:16:35.620Z,20.72
2018-08-17T00:17:35.641Z,20.19
2018-08-17T00:18:35.668Z,20.03
2018-08-17T00:19:35.689Z,20.29
2018-08-17T00:20:35.704Z,20.43
2018-08-17T00:21:35.725Z,20.59
2018-08-17T00:22:35.746Z,20.56
2018-08-17T00:23:35.774Z,20.32
2018-08-17T00:24:35.787Z,20.31
2018-08-17T00:25:35.829Z,20.40
2018-08-17T00:26:35.875Z,20.41
2018-08-17T00:27:35.848Z,20.41
2018-08-17T00:28:35.871Z,20.43
2018-08-17T00:29:35.904Z,20.16
2018-08-17T00:30:35.914Z,20.31
2018-08-17T00:31:35.933Z,20.40
2018-08-17T00:32:35.952Z,20.63
2018-08-17T00:33:35.972Z,20.34
2018-08-17T00:34:35.994Z,20.24
2018-08-17T00:35:36.063Z,20.19
2018-08-17T00:36:36.037Z,19.84
2018-08-17T00:37:36.056Z,19.89
2018-08-17T00:38:36.076Z,20.03
2018-08-17T00:39:36.096Z,19.92
2018-08-17T00:40:36.123Z,20.10
2018-08-17T00:41:36.139Z,20.28
2018-08-17T00:42:36.158Z,20.14
2018-08-17T00:43:36.180Z,20.07
2018-08-17T00:44:36.198Z,20.06
2018-08-17T00:45:36.220Z,19.92
2018-08-17T00:46:36.256Z,19.95
2018-08-17T00:47:36.264Z,20.00
2018-08-17T00:48:36.285Z,19.91
2018-08-17T00:49:36.304Z,19.94
2018-08-17T00:50:36.323Z,20.31
2018-08-17T00:51:36.344Z,20.34
2018-08-17T00:52:36.371Z,20.41
2018-08-17T00:53:36.384Z,20.32
2018-08-17T00:54:36.411Z,20.40
2018-08-17T00:55:36.456Z,20.55
2018-08-17T00:56:36.504Z,20.34
2018-08-17T00:57:36.470Z,20.39
2018-08-17T00:58:36.494Z,20.24
2018-08-17T00:59:36.510Z,20.24
2018-08-17T01:00:36.529Z,20.11
2018-08-17T01:01:36.551Z,20.13
2018-08-17T01:02:36.570Z,19.74
2018-08-17T01:03:36.594Z,19.84
2018-08-17T01:04:36.612Z,19.84
2018-08-17T01:05:36.630Z,20.04
2018-08-17T01:06:36.654Z,20.04
2018-08-17T01:07:36.675Z,20.00
2018-08-17T01:08:36.693Z,20.00
2018-08-17T01:09:36.718Z,19.89
2018-08-17T01:10:36.736Z,19.88
2018-08-17T01:11:36.757Z,20.03
2018-08-17T01:12:36.777Z,20.00
2018-08-17T01:13:36.803Z,20.10
2018-08-17T01:14:36.821Z,20.11
2018-08-17T01:15:36.840Z,20.06
2018-08-17T01:16:36.860Z,19.94
2018-08-17T01:17:36.881Z,20.03
2018-08-17T01:18:36.904Z,20.10
2018-08-17T01:19:36.925Z,20.21
2018-08-17T01:20:36.948Z,20.13
2018-08-17T01:21:36.960Z,20.14
2018-08-17T01:22:36.980Z,20.25
2018-08-17T01:23:37.003Z,20.29
2018-08-17T01:24:37.047Z,20.00
2018-08-17T01:25:37.044Z,20.11
2018-08-17T01:26:37.061Z,20.21
2018-08-17T01:27:37.081Z,20.24
2018-08-17T01:28:37.104Z,20.16
2018-08-17T01:29:37.128Z,20.18
2018-08-17T01:30:37.144Z,20.25
2018-08-17T01:31:37.167Z,20.02
2018-08-17T01:32:37.188Z,20.10
2018-08-17T01:33:37.206Z,19.96
2018-08-17T01:34:37.348Z,20.07
2018-08-17T01:35:37.259Z,19.99
2018-08-17T01:36:37.271Z,20.00
2018-08-17T01:37:37.288Z,19.74
2018-08-17T01:38:37.309Z,19.76
2018-08-17T01:39:37.330Z,20.03
2018-08-17T01:40:37.349Z,20.25
2018-08-17T01:41:37.374Z,20.26
2018-08-17T01:42:37.398Z,19.91
2018-08-17T01:43:37.412Z,20.14
2018-08-17T01:44:37.435Z,20.16
2018-08-17T01:45:37.454Z,20.29
2018-08-17T01:46:37.477Z,20.14
2018-08-17T01:47:37.495Z,20.16
2018-08-17T01:48:37.516Z,20.29
2018-08-17T01:49:37.535Z,20.11
2018-08-17T01:50:37.556Z,20.25
2018-08-17T01:51:37.577Z,20.16
2018-08-17T01:52:37.599Z,20.13
2018-08-17T01:53:37.620Z,20.21
2018-08-17T01:54:37.638Z,20.29
2018-08-17T01:55:37.664Z,19.99
2018-08-17T01:56:37.681Z,19.79
2018-08-17T01:57:37.702Z,20.02
2018-08-17T01:58:37.720Z,19.88
2018-08-17T01:59:37.741Z,19.74
2018-08-17T02:00:37.762Z,19.92
2018-08-17T02:01:37.968Z,19.89
2018-08-17T02:02:37.805Z,19.76
2018-08-17T02:03:37.823Z,19.69
2018-08-17T02:04:37.847Z,19.56
2018-08-17T02:05:37.871Z,19.52
2018-08-17T02:06:37.884Z,19.76
2018-08-17T02:07:37.904Z,19.71
2018-08-17T02:08:37.924Z,19.74
2018-08-17T02:09:37.943Z,19.70
2018-08-17T02:10:37.966Z,19.63
2018-08-17T02:11:37.990Z,19.47
2018-08-17T02:12:38.006Z,19.41
2018-08-17T02:13:38.035Z,19.54
2018-08-17T02:14:38.079Z,19.47
2018-08-17T02:15:38.070Z,19.54
2018-08-17T02:16:38.091Z,19.36
2018-08-17T02:17:38.107Z,19.47
2018-08-17T02:18:38.137Z,19.36
2018-08-17T02:19:38.150Z,19.36
2018-08-17T02:20:38.174Z,19.51
2018-08-17T02:21:38.194Z,19.69
2018-08-17T02:22:38.217Z,19.73
2018-08-17T02:23:38.236Z,19.58
2018-08-17T02:24:38.253Z,19.70
2018-08-17T02:25:38.281Z,19.56
2018-08-17T02:26:38.311Z,19.62
2018-08-17T02:27:38.315Z,19.56
2018-08-17T02:28:38.347Z,19.49
2018-08-17T02:29:38.357Z,19.36
2018-08-17T02:30:38.374Z,19.37
2018-08-17T02:31:38.397Z,19.48
2018-08-17T02:32:38.418Z,19.56
2018-08-17T02:33:38.444Z,19.58
2018-08-17T02:34:38.458Z,19.39
2018-08-17T02:35:38.480Z,19.49
2018-08-17T02:36:38.501Z,19.49
2018-08-17T02:37:38.519Z,19.39
2018-08-17T02:38:38.540Z,19.09
2018-08-17T02:39:38.559Z,19.18
2018-08-17T02:40:38.584Z,19.29
2018-08-17T02:41:38.602Z,19.39
2018-08-17T02:42:38.764Z,19.51
2018-08-17T02:43:38.662Z,19.45
2018-08-17T02:44:38.660Z,19.48
2018-08-17T02:45:38.684Z,19.48
2018-08-17T02:46:38.715Z,19.52
2018-08-17T02:47:38.729Z,19.48
2018-08-17T02:48:38.745Z,19.48
2018-08-17T02:49:38.766Z,19.37
2018-08-17T02:50:38.786Z,19.37
2018-08-17T02:51:38.815Z,19.47
2018-08-17T02:52:38.827Z,19.40
2018-08-17T02:53:38.847Z,19.18
2018-08-17T02:54:38.871Z,19.21
2018-08-17T02:55:38.892Z,19.34
2018-08-17T02:56:38.909Z,19.16
2018-08-17T02:57:38.946Z,19.30
2018-08-17T02:58:38.949Z,19.33
2018-08-17T02:59:39.007Z,19.27
2018-08-17T03:00:38.988Z,19.26
2018-08-17T03:01:39.014Z,19.36
2018-08-17T03:02:39.029Z,19.37
2018-08-17T03:03:39.050Z,19.19
2018-08-17T03:04:39.075Z,19.04
2018-08-17T03:05:39.090Z,18.83
2018-08-17T03:06:39.112Z,18.86
2018-08-17T03:07:39.134Z,18.78
2018-08-17T03:08:39.154Z,18.96
2018-08-17T03:09:39.180Z,18.84
2018-08-17T03:10:39.198Z,18.90
2018-08-17T03:11:39.210Z,18.98
2018-08-17T03:12:39.238Z,18.75
2018-08-17T03:13:39.251Z,18.98
2018-08-17T03:14:39.285Z,19.02
2018-08-17T03:15:39.298Z,18.88
2018-08-17T03:16:39.320Z,18.95
2018-08-17T03:17:39.335Z,18.77
2018-08-17T03:18:39.354Z,18.63
2018-08-17T03:19:39.378Z,18.86
2018-08-17T03:20:39.399Z,18.98
2018-08-17T03:21:39.418Z,18.92
2018-08-17T03:22:39.435Z,18.84
2018-08-17T03:23:39.460Z,18.53
2018-08-17T03:24:39.476Z,18.62
2018-08-17T03:25:39.499Z,18.75
2018-08-17T03:26:39.516Z,18.78
2018-08-17T03:27:39.539Z,18.73
2018-08-17T03:28:39.559Z,18.55
2018-08-17T03:29:39.576Z,18.75
2018-08-17T03:30:39.601Z,18.73
2018-08-17T03:31:39.653Z,18.71
2018-08-17T03:32:39.644Z,18.78
2018-08-17T03:33:39.660Z,18.90
2018-08-17T03:34:39.679Z,18.88
2018-08-17T03:35:39.706Z,18.93
2018-08-17T03:36:39.721Z,18.58
2018-08-17T03:37:39.753Z,18.77
2018-08-17T03:38:39.763Z,18.80
2018-08-17T03:39:39.779Z,18.53
2018-08-17T03:40:39.804Z,18.60
2018-08-17T03:41:39.822Z,18.40
2018-08-17T03:42:39.848Z,18.25
2018-08-17T03:43:39.862Z,18.20
2018-08-17T03:44:39.882Z,18.07
2018-08-17T03:45:39.905Z,17.92
2018-08-17T03:46:39.923Z,17.86
2018-08-17T03:47:39.944Z,17.80
2018-08-17T03:48:39.965Z,18.01
2018-08-17T03:49:39.982Z,18.08
2018-08-17T03:50:40.005Z,18.13
2018-08-17T03:51:40.035Z,18.05
2018-08-17T03:52:40.048Z,18.05
2018-08-17T03:53:40.064Z,18.00
2018-08-17T03:54:40.085Z,18.15
2018-08-17T03:55:40.104Z,18.29
2018-08-17T03:56:40.123Z,18.35
2018-08-17T03:57:40.149Z,18.45
2018-08-17T03:58:40.168Z,18.40
2018-08-17T03:59:40.185Z,18.63
2018-08-17T04:00:40.213Z,18.63
2018-08-17T04:01:40.377Z,18.45
2018-08-17T04:02:40.243Z,18.25
2018-08-17T04:03:40.276Z,18.05
2018-08-17T04:04:40.286Z,18.07
2018-08-17T04:05:40.305Z,18.19
2018-08-17T04:06:40.325Z,18.10
2018-08-17T04:07:40.343Z,18.10
2018-08-17T04:08:40.365Z,18.11
2018-08-17T04:09:40.386Z,18.15
2018-08-17T04:10:40.405Z,18.11
2018-08-17T04:11:40.426Z,18.25
2018-08-17T04:12:40.448Z,18.34
2018-08-17T04:13:40.467Z,18.15
2018-08-17T04:14:40.489Z,18.22
2018-08-17T04:15:40.566Z,18.33
2018-08-17T04:16:40.525Z,18.38
2018-08-17T04:17:40.548Z,18.52
2018-08-17T04:18:40.565Z,18.58
2018-08-17T04:19:40.587Z,18.53
2018-08-17T04:20:40.608Z,18.60
2018-08-17T04:21:40.629Z,18.63
2018-08-17T04:22:40.648Z,18.68
2018-08-17T04:23:40.693Z,18.45
2018-08-17T04:24:40.689Z,18.63
2018-08-17T04:25:40.708Z,18.26
2018-08-17T04:26:40.729Z,18.15
2018-08-17T04:27:40.749Z,18.26
2018-08-17T04:28:40.771Z,18.25
2018-08-17T04:29:40.789Z,18.04
2018-08-17T04:30:40.807Z,18.05
2018-08-17T04:31:40.828Z,18.08
2018-08-17T04:32:40.848Z,18.19
2018-08-17T04:33:40.868Z,18.33
2018-08-17T04:34:40.891Z,18.23
2018-08-17T04:35:40.909Z,18.45
2018-08-17T04:36:40.932Z,18.33
2018-08-17T04:37:40.948Z,18.47
2018-08-17T04:38:40.972Z,18.23
2018-08-17T04:39:40.990Z,18.34
2018-08-17T04:40:41.009Z,18.45
2018-08-17T04:41:41.028Z,18.53
2018-08-17T04:42:41.051Z,18.59
2018-08-17T04:43:41.128Z,18.52
2018-08-17T04:44:41.091Z,18.37
2018-08-17T04:45:41.232Z,18.33
2018-08-17T04:46:41.136Z,18.44
2018-08-17T04:47:41.149Z,18.59
2018-08-17T04:48:41.172Z,18.71
2018-08-17T04:49:41.193Z,18.81
2018-08-17T04:50:41.223Z,18.98
2018-08-17T04:51:41.260Z,18.84
2018-08-17T04:52:41.251Z,18.86
2018-08-17T04:53:41.272Z,19.02
2018-08-17T04:54:41.295Z,19.15
2018-08-17T04:55:41.314Z,19.14
2018-08-17T04:56:41.339Z,19.12
2018-08-17T04:57:41.354Z,19.37
2018-08-17T04:58:41.394Z,19.41
2018-08-17T04:59:41.396Z,19.56
2018-08-17T05:00:41.418Z,19.47
2018-08-17T05:01:41.436Z,19.39
2018-08-17T05:02:41.484Z,19.24
2018-08-17T05:03:41.476Z,19.51
2018-08-17T05:04:41.496Z,19.77
2018-08-17T05:05:41.545Z,19.82
2018-08-17T05:06:41.546Z,19.36
2018-08-17T05:07:41.560Z,19.36
2018-08-17T05:08:41.577Z,19.51
2018-08-17T05:09:41.604Z,19.37
2018-08-17T05:10:41.622Z,19.36
2018-08-17T05:11:41.653Z,19.44
2018-08-17T05:12:41.666Z,19.62
2018-08-17T05:13:41.706Z,19.92
2018-08-17T05:14:41.706Z,19.89
2018-08-17T05:15:41.729Z,19.91
2018-08-17T05:16:41.750Z,20.29
2018-08-17T05:17:41.769Z,20.60
2018-08-17T05:18:41.818Z,20.97
2018-08-17T05:19:41.821Z,21.25
2018-08-17T05:20:41.831Z,21.51
2018-08-17T05:21:41.859Z,21.99
2018-08-17T05:22:41.916Z,22.70
2018-08-17T05:23:41.900Z,22.47
2018-08-17T05:24:41.921Z,22.47
2018-08-17T05:25:41.952Z,23.10
2018-08-17T05:26:41.964Z,23.21
2018-08-17T05:27:41.989Z,23.41
2018-08-17T05:28:42.011Z,23.13
2018-08-17T05:29:42.057Z,23.46
2018-08-17T05:30:42.185Z,23.18
2018-08-17T05:31:42.079Z,22.98
2018-08-17T05:32:42.102Z,23.13
2018-08-17T05:33:42.124Z,23.13
2018-08-17T05:34:42.147Z,23.08
2018-08-17T05:35:42.179Z,23.20
2018-08-17T05:36:42.195Z,23.51
2018-08-17T05:37:42.219Z,23.39
2018-08-17T05:38:42.244Z,23.17
2018-08-17T05:39:42.267Z,23.68
2018-08-17T05:40:42.292Z,23.66
2018-08-17T05:41:42.315Z,23.69
2018-08-17T05:42:42.337Z,24.11
2018-08-17T05:43:42.408Z,24.47
2018-08-17T05:44:42.388Z,24.99
2018-08-17T05:45:42.411Z,25.40
2018-08-17T05:46:42.445Z,25.53
2018-08-17T05:47:42.459Z,25.69
2018-08-17T05:48:42.487Z,26.00
2018-08-17T05:49:42.508Z,25.81
2018-08-17T05:50:42.535Z,25.44
2018-08-17T05:51:42.558Z,26.06
2018-08-17T05:52:42.628Z,26.25
2018-08-17T05:53:42.621Z,26.53
2018-08-17T05:54:42.658Z,25.77
2018-08-17T05:55:42.658Z,25.87
2018-08-17T05:56:42.717Z,26.22
2018-08-17T05:57:42.709Z,26.66
2018-08-17T05:58:42.734Z,27.22
2018-08-17T05:59:42.762Z,27.42
2018-08-17T06:00:42.783Z,27.11
2018-08-17T06:01:42.809Z,27.59
2018-08-17T06:02:42.845Z,27.68
2018-08-17T06:03:42.860Z,27.59
2018-08-17T06:04:42.891Z,27.11
2018-08-17T06:05:42.913Z,26.05
2018-08-17T06:06:42.937Z,25.63
2018-08-17T06:07:42.964Z,25.44
2018-08-17T06:08:42.987Z,25.18
2018-08-17T06:09:43.017Z,25.26
2018-08-17T06:10:43.042Z,24.65
2018-08-17T06:11:43.125Z,24.58
2018-08-17T06:12:43.090Z,25.11
2018-08-17T06:13:43.124Z,25.47
2018-08-17T06:14:43.139Z,25.51
2018-08-17T06:15:43.171Z,25.35
2018-08-17T06:16:43.191Z,25.01
2018-08-17T06:17:43.216Z,25.53
2018-08-17T06:18:43.241Z,25.73
2018-08-17T06:19:43.273Z,25.60
2018-08-17T06:20:43.291Z,25.83
2018-08-17T06:21:43.316Z,27.10
2018-08-17T06:22:43.340Z,27.15
2018-08-17T06:23:43.395Z,27.78
2018-08-17T06:24:43.393Z,27.86
2018-08-17T06:25:43.416Z,27.83
2018-08-17T06:26:43.441Z,27.87
2018-08-17T06:27:43.470Z,27.00
2018-08-17T06:28:43.489Z,27.30
2018-08-17T06:29:43.516Z,26.97
2018-08-17T06:30:43.544Z,27.85
2018-08-17T06:31:43.629Z,28.10
2018-08-17T06:32:43.593Z,28.26
2018-08-17T06:33:43.615Z,28.78
2018-08-17T06:34:43.641Z,28.41
2018-08-17T06:35:43.671Z,28.48
2018-08-17T06:36:43.691Z,28.29
2018-08-17T06:37:43.718Z,29.08
2018-08-17T06:38:43.743Z,29.07
2018-08-17T06:39:43.769Z,28.96
2018-08-17T06:40:43.796Z,29.31
2018-08-17T06:41:43.822Z,29.73
2018-08-17T06:42:43.855Z,29.81
2018-08-17T06:43:43.871Z,29.72
2018-08-17T06:44:43.897Z,29.65
2018-08-17T06:45:43.923Z,29.72
2018-08-17T06:46:43.955Z,29.56
2018-08-17T06:47:44.007Z,29.24
2018-08-17T06:48:44.004Z,29.14
2018-08-17T06:49:44.027Z,28.76
2018-08-17T06:50:44.142Z,28.67
2018-08-17T06:51:44.079Z,28.35
2018-08-17T06:52:44.110Z,29.20
2018-08-17T06:53:44.135Z,29.50
2018-08-17T06:54:44.158Z,29.50
2018-08-17T06:55:44.197Z,29.78
2018-08-17T06:56:44.216Z,29.44
2018-08-17T06:57:44.241Z,29.08
2018-08-17T06:58:44.263Z,29.13
2018-08-17T06:59:44.291Z,30.12
2018-08-17T07:00:44.317Z,29.61
2018-08-17T07:01:44.346Z,30.18
2018-08-17T07:02:44.500Z,30.12
2018-08-17T07:03:44.399Z,29.82
2018-08-17T07:04:44.421Z,29.56
2018-08-17T07:05:44.452Z,29.54
2018-08-17T07:06:44.475Z,29.53
2018-08-17T07:07:44.504Z,30.00
2018-08-17T07:08:44.551Z,30.21
2018-08-17T07:09:44.556Z,30.94
2018-08-17T07:10:44.585Z,30.92
2018-08-17T07:11:44.611Z,30.47
2018-08-17T07:12:44.649Z,30.96
2018-08-17T07:13:44.664Z,31.29
2018-08-17T07:14:44.692Z,31.74
2018-08-17T07:15:44.719Z,32.19
2018-08-17T07:16:44.818Z,31.43
2018-08-17T07:17:44.780Z,31.56
2018-08-17T07:18:44.805Z,31.89
2018-08-17T07:19:44.831Z,32.30
2018-08-17T07:20:44.856Z,31.97
2018-08-17T07:21:44.897Z,31.58
2018-08-17T07:22:44.915Z,30.31
2018-08-17T07:23:44.943Z,30.50
2018-08-17T07:24:44.971Z,31.07
2018-08-17T07:25:44.998Z,30.65
2018-08-17T07:26:45.028Z,30.43
2018-08-17T07:27:45.180Z,29.65
2018-08-17T07:28:45.082Z,30.63
2018-08-17T07:29:45.107Z,30.08
2018-08-17T07:30:45.137Z,30.21
2018-08-17T07:31:45.166Z,29.82
2018-08-17T07:32:45.230Z,30.12
2018-08-17T07:33:45.219Z,30.83
2018-08-17T07:34:45.250Z,30.44
2018-08-17T07:35:45.316Z,30.84
2018-08-17T07:36:45.301Z,31.12
2018-08-17T07:37:45.323Z,30.85
2018-08-17T07:38:45.354Z,30.62
2018-08-17T07:39:45.400Z,30.55
2018-08-17T07:40:45.466Z,30.81
2018-08-17T07:41:45.508Z,31.33
2018-08-17T07:42:45.464Z,30.80
2018-08-17T07:43:45.490Z,30.73
2018-08-17T07:44:45.517Z,30.87
2018-08-17T07:45:45.550Z,30.85
2018-08-17T07:46:45.570Z,31.18
2018-08-17T07:47:45.622Z,31.07
2018-08-17T07:48:45.626Z,31.29
2018-08-17T07:49:45.678Z,31.58
2018-08-17T07:50:45.814Z,32.22
2018-08-17T07:51:45.737Z,32.82
2018-08-17T07:52:45.741Z,32.68
2018-08-17T07:53:45.764Z,32.11
2018-08-17T07:54:45.793Z,32.18
2018-08-17T07:55:45.821Z,32.08
2018-08-17T07:56:45.855Z,32.08
2018-08-17T07:57:45.896Z,31.66
2018-08-17T07:58:46.059Z,31.54
2018-08-17T07:59:45.935Z,32.23
2018-08-17T08:00:45.963Z,32.04
2018-08-17T08:01:45.989Z,32.18
2018-08-17T08:02:46.016Z,32.30
2018-08-17T08:03:46.044Z,32.21
2018-08-17T08:04:46.078Z,31.71
2018-08-17T08:05:46.099Z,32.12
2018-08-17T08:06:46.129Z,32.36
2018-08-17T08:07:46.158Z,31.56
2018-08-17T08:08:46.184Z,32.26
2018-08-17T08:09:46.215Z,32.19
2018-08-17T08:10:46.239Z,32.40
2018-08-17T08:11:46.267Z,32.48
2018-08-17T08:12:46.295Z,32.93
2018-08-17T08:13:46.394Z,32.71
2018-08-17T08:14:46.366Z,33.39
2018-08-17T08:15:46.382Z,33.94
2018-08-17T08:16:46.411Z,34.54
2018-08-17T08:17:46.437Z,33.74
2018-08-17T08:18:46.466Z,31.97
2018-08-17T08:19:46.507Z,31.24
2018-08-17T08:20:46.523Z,31.09
2018-08-17T08:21:46.550Z,31.15
2018-08-17T08:22:46.583Z,31.87
2018-08-17T08:23:46.610Z,30.84
2018-08-17T08:24:46.636Z,30.81
2018-08-17T08:25:46.691Z,31.99
2018-08-17T08:26:46.710Z,32.49
2018-08-17T08:27:46.719Z,32.01
2018-08-17T08:28:46.751Z,31.07
2018-08-17T08:29:46.778Z,30.57
2018-08-17T08:30:46.812Z,30.61
2018-08-17T08:31:46.828Z,30.02
2018-08-17T08:32:46.856Z,29.54
2018-08-17T08:33:46.884Z,29.27
2018-08-17T08:34:46.928Z,28.66
2018-08-17T08:35:46.929Z,29.24
2018-08-17T08:36:46.958Z,29.59
2018-08-17T08:37:46.983Z,29.53
2018-08-17T08:38:47.012Z,29.60
2018-08-17T08:39:47.056Z,29.04
2018-08-17T08:40:47.061Z,29.63
2018-08-17T08:41:47.088Z,29.65
2018-08-17T08:42:47.121Z,29.66
2018-08-17T08:43:47.137Z,29.59
2018-08-17T08:44:47.172Z,29.72
2018-08-17T08:45:47.248Z,29.76
2018-08-17T08:46:47.216Z,29.57
2018-08-17T08:47:47.240Z,29.38
2018-08-17T08:48:47.264Z,29.69
2018-08-17T08:49:47.298Z,30.03
2018-08-17T08:50:47.317Z,29.95
2018-08-17T08:51:47.339Z,29.86
2018-08-17T08:52:47.366Z,29.79
2018-08-17T08:53:47.392Z,29.60
2018-08-17T08:54:47.418Z,29.87
2018-08-17T08:55:47.444Z,29.54
2018-08-17T08:56:47.466Z,29.60
2018-08-17T08:57:47.534Z,29.42
2018-08-17T08:58:47.546Z,30.21
2018-08-17T08:59:47.544Z,30.05
2018-08-17T09:00:47.569Z,30.28
2018-08-17T09:01:47.701Z,29.98
2018-08-17T09:02:47.617Z,29.73
2018-08-17T09:03:47.647Z,29.76
2018-08-17T09:04:47.674Z,29.84
2018-08-17T09:05:48.193Z,29.59
2018-08-17T09:06:47.724Z,29.36
2018-08-17T09:07:47.752Z,29.41
2018-08-17T09:08:47.779Z,29.42
2018-08-17T09:09:47.792Z,30.16
2018-08-17T09:10:47.818Z,30.39
2018-08-17T09:11:47.843Z,30.28
2018-08-17T09:12:47.893Z,30.09
2018-08-17T09:13:48.013Z,30.18
2018-08-17T09:14:47.916Z,30.32
2018-08-17T09:15:47.943Z,29.78
2018-08-17T09:16:47.994Z,29.84
2018-08-17T09:17:47.997Z,29.72
2018-08-17T09:18:48.018Z,29.54
2018-08-17T09:19:48.068Z,29.60
2018-08-17T09:20:48.081Z,29.66
2018-08-17T09:21:48.090Z,29.53
2018-08-17T09:22:48.119Z,29.61
2018-08-17T09:23:48.142Z,29.71
2018-08-17T09:24:48.167Z,29.47
2018-08-17T09:25:48.242Z,29.42
2018-08-17T09:26:48.220Z,29.39
2018-08-17T09:27:48.244Z,29.31
2018-08-17T09:28:48.267Z,29.29
2018-08-17T09:29:48.292Z,29.13
2018-08-17T09:30:48.321Z,29.50
2018-08-17T09:31:48.349Z,29.49
2018-08-17T09:32:48.366Z,29.49
2018-08-17T09:33:48.433Z,28.97
2018-08-17T09:34:48.417Z,28.85
2018-08-17T09:35:48.449Z,28.74
2018-08-17T09:36:48.467Z,28.72
2018-08-17T09:37:48.493Z,28.48
2018-08-17T09:38:48.515Z,28.51
2018-08-17T09:39:48.540Z,28.14
2018-08-17T09:40:48.567Z,27.89
2018-08-17T09:41:48.626Z,27.71
2018-08-17T09:42:48.615Z,27.77
2018-08-17T09:43:48.638Z,27.36
2018-08-17T09:44:48.665Z,27.39
2018-08-17T09:45:48.704Z,27.15
2018-08-17T09:46:48.718Z,26.44
2018-08-17T09:47:48.738Z,26.60
2018-08-17T09:48:48.756Z,26.83
2018-08-17T09:49:48.782Z,26.97
2018-08-17T09:50:48.805Z,26.96
2018-08-17T09:51:48.828Z,26.97
2018-08-17T09:52:48.856Z,27.15
2018-08-17T09:53:48.875Z,27.00
2018-08-17T09:54:48.902Z,26.83
2018-08-17T09:55:48.927Z,26.73
2018-08-17T09:56:49.099Z,26.59
2018-08-17T09:57:48.976Z,26.37
2018-08-17T09:58:49.056Z,26.56
2018-08-17T09:59:49.025Z,26.81
2018-08-17T10:00:49.045Z,27.35
2018-08-17T10:01:49.065Z,27.89
2018-08-17T10:02:49.092Z,27.92
2018-08-17T10:03:49.236Z,28.01
2018-08-17T10:04:49.144Z,28.07
2018-08-17T10:05:49.164Z,28.35
2018-08-17T10:06:49.190Z,28.63
2018-08-17T10:07:49.215Z,28.75
2018-08-17T10:08:49.241Z,29.32
2018-08-17T10:09:49.259Z,29.20
2018-08-17T10:10:49.286Z,28.82
2018-08-17T10:11:49.306Z,28.88
2018-08-17T10:12:49.331Z,29.12
2018-08-17T10:13:49.357Z,29.49
2018-08-17T10:14:49.382Z,29.75
2018-08-17T10:15:49.468Z,29.72
2018-08-17T10:16:49.430Z,29.42
2018-08-17T10:17:49.452Z,29.41
2018-08-17T10:18:49.477Z,29.59
2018-08-17T10:19:49.504Z,29.56
2018-08-17T10:20:49.674Z,30.02
2018-08-17T10:21:49.821Z,30.61
2018-08-17T10:22:49.578Z,30.65
2018-08-17T10:23:49.620Z,30.63
2018-08-17T10:24:49.633Z,30.80
2018-08-17T10:25:49.655Z,30.43
2018-08-17T10:26:49.675Z,29.79
2018-08-17T10:27:49.700Z,29.81
2018-08-17T10:28:49.724Z,29.87
2018-08-17T10:29:49.750Z,29.38
2018-08-17T10:30:49.773Z,29.27
2018-08-17T10:31:49.802Z,29.27
2018-08-17T10:32:49.824Z,29.38
2018-08-17T10:33:49.858Z,29.51
2018-08-17T10:34:49.875Z,29.39
2018-08-17T10:35:49.899Z,29.17
2018-08-17T10:36:49.925Z,29.53
2018-08-17T10:37:49.949Z,28.86
2018-08-17T10:38:49.974Z,28.93
2018-08-17T10:39:49.997Z,29.31
2018-08-17T10:40:50.160Z,29.23
2018-08-17T10:41:50.050Z,29.08
2018-08-17T10:42:50.074Z,29.08
2018-08-17T10:43:50.102Z,29.16
2018-08-17T10:44:50.125Z,29.26
2018-08-17T10:45:50.147Z,28.98
2018-08-17T10:46:50.178Z,29.04
2018-08-17T10:47:50.195Z,29.24
2018-08-17T10:48:50.313Z,29.23
2018-08-17T10:49:50.249Z,29.41
2018-08-17T10:50:50.273Z,29.42
2018-08-17T10:51:50.309Z,29.60
2018-08-17T10:52:50.320Z,29.81
2018-08-17T10:53:50.346Z,29.63
2018-08-17T10:54:50.379Z,29.71
2018-08-17T10:55:50.392Z,29.93
2018-08-17T10:56:50.420Z,29.04
2018-08-17T10:57:50.442Z,28.84
2018-08-17T10:58:50.469Z,29.05
2018-08-17T10:59:50.492Z,29.16
2018-08-17T11:00:50.516Z,29.41
2018-08-17T11:01:50.541Z,29.27
2018-08-17T11:02:50.562Z,28.64
2018-08-17T11:03:50.590Z,28.27
2018-08-17T11:04:50.619Z,28.52
2018-08-17T11:05:50.642Z,28.78
2018-08-17T11:06:50.661Z,28.75
2018-08-17T11:07:50.688Z,28.75
2018-08-17T11:08:50.709Z,28.75
2018-08-17T11:09:50.736Z,29.04
2018-08-17T11:10:50.762Z,29.05
2018-08-17T11:11:50.785Z,29.05
2018-08-17T11:12:50.808Z,28.88
2018-08-17T11:13:50.833Z,28.88
2018-08-17T11:14:50.861Z,28.38
2018-08-17T11:15:50.883Z,28.25
2018-08-17T11:16:50.924Z,28.27
2018-08-17T11:17:50.937Z,28.07
2018-08-17T11:18:50.959Z,27.92
2018-08-17T11:19:50.982Z,27.58
2018-08-17T11:20:51.005Z,27.90
2018-08-17T11:21:51.027Z,28.30
2018-08-17T11:22:51.097Z,28.54
2018-08-17T11:23:51.082Z,28.91
2018-08-17T11:24:51.099Z,28.82
2018-08-17T11:25:51.124Z,29.08
2018-08-17T11:26:51.151Z,29.10
2018-08-17T11:27:51.173Z,28.86
2018-08-17T11:28:51.198Z,28.74
2018-08-17T11:29:51.221Z,28.72
2018-08-17T11:30:51.247Z,28.64
2018-08-17T11:31:51.269Z,28.41
2018-08-17T11:32:51.290Z,28.38
2018-08-17T11:33:51.316Z,28.51
2018-08-17T11:34:51.341Z,28.41
2018-08-17T11:35:51.365Z,28.12
2018-08-17T11:36:51.387Z,27.95
2018-08-17T11:37:51.415Z,27.96
2018-08-17T11:38:51.436Z,28.00
2018-08-17T11:39:51.468Z,28.52
2018-08-17T11:40:51.485Z,28.54
2018-08-17T11:41:51.510Z,29.12
2018-08-17T11:42:51.533Z,29.27
2018-08-17T11:43:51.559Z,29.31
2018-08-17T11:44:51.579Z,29.02
2018-08-17T11:45:51.606Z,29.27
2018-08-17T11:46:51.627Z,29.45
2018-08-17T11:47:51.654Z,29.23
2018-08-17T11:48:51.677Z,29.42
2018-08-17T11:49:51.722Z,29.42
2018-08-17T11:50:51.727Z,29.32
2018-08-17T11:51:51.753Z,29.50
2018-08-17T11:52:51.774Z,29.26
2018-08-17T11:53:51.814Z,29.19
2018-08-17T11:54:51.832Z,29.42
2018-08-17T11:55:51.848Z,29.34
2018-08-17T11:56:51.878Z,29.39
2018-08-17T11:57:51.896Z,29.59
2018-08-17T11:58:51.918Z,29.73
2018-08-17T11:59:51.943Z,29.72
2018-08-17T12:00:51.970Z,29.56
2018-08-17T12:01:51.999Z,29.76
2018-08-17T12:02:52.018Z,29.98
2018-08-17T12:03:52.169Z,30.21
2018-08-17T12:04:52.065Z,30.21
2018-08-17T12:05:52.090Z,30.25
2018-08-17T12:06:52.113Z,30.35
2018-08-17T12:07:52.139Z,30.40
2018-08-17T12:08:52.163Z,30.34
2018-08-17T12:09:52.191Z,30.48
2018-08-17T12:10:52.214Z,30.34
2018-08-17T12:11:52.236Z,30.24
2018-08-17T12:12:52.259Z,30.06
2018-08-17T12:13:52.291Z,30.65
2018-08-17T12:14:52.310Z,30.53
2018-08-17T12:15:52.346Z,30.63
2018-08-17T12:16:52.359Z,31.09
2018-08-17T12:17:52.394Z,30.96
2018-08-17T12:18:52.553Z,30.77
2018-08-17T12:19:52.436Z,31.10
2018-08-17T12:20:52.460Z,31.55
2018-08-17T12:21:52.487Z,31.55
2018-08-17T12:22:52.507Z,31.02
2018-08-17T12:23:52.531Z,30.65
2018-08-17T12:24:52.590Z,30.30
2018-08-17T12:25:52.627Z,30.80
2018-08-17T12:26:52.629Z,31.07
2018-08-17T12:27:52.648Z,30.78
2018-08-17T12:28:52.661Z,31.06
2018-08-17T12:29:52.711Z,30.37
2018-08-17T12:30:52.708Z,30.59
2018-08-17T12:31:52.741Z,30.80
2018-08-17T12:32:52.757Z,30.94
2018-08-17T12:33:52.781Z,31.05
2018-08-17T12:34:52.809Z,31.03
2018-08-17T12:35:52.833Z,30.61
2018-08-17T12:36:52.859Z,30.81
2018-08-17T12:37:52.889Z,30.57
2018-08-17T12:38:52.907Z,30.75
2018-08-17T12:39:52.935Z,30.32
2018-08-17T12:40:52.958Z,30.00
2018-08-17T12:41:52.983Z,29.82
2018-08-17T12:42:53.005Z,29.81
2018-08-17T12:43:53.031Z,29.98
2018-08-17T12:44:53.055Z,30.06
2018-08-17T12:45:53.080Z,30.08
2018-08-17T12:46:53.108Z,30.34
2018-08-17T12:47:53.132Z,30.53
2018-08-17T12:48:53.154Z,30.66
2018-08-17T12:49:53.180Z,30.73
2018-08-17T12:50:53.205Z,30.81
2018-08-17T12:51:53.240Z,31.03
2018-08-17T12:52:53.252Z,30.96